This is the latest recevied weather packets stored in our database for station/object OE-11152. If no packets are shown the sender has not sent any weather packets the latest 10 day(s).
| Time | Temp. | Humidity | Pressure | Rain* | Wind** | Luminosity | Snow |
|---|---|---|---|---|---|---|---|
| 1788136891 | 18.33° C | 92% | 1015.5 hPa | 3.81 mm | - | 0 W/m² | - |
| 1788136519 | 18.33° C | 90% | 1015.5 hPa | 3.3 mm | - | 0 W/m² | - |
| 1788135919 | 18.89° C | 87% | 1015.6 hPa | 3.3 mm | - | 0 W/m² | - |
| 1788135092 | 18.33° C | 89% | 1015.6 hPa | 2.79 mm | - | 0 W/m² | - |
| 1788134719 | 19.44° C | 82% | 1015.1 hPa | 1.27 mm | - | 0 W/m² | - |
| 1788134119 | 20° C | 79% | 1014.8 hPa | 0.51 mm | - | 0 W/m² | - |
| 1788133530 | 20.56° C | 72% | 1014.9 hPa | 0 mm | - | 0 W/m² | - |
| 1788132918 | 20.56° C | 75% | 1014.8 hPa | 0 mm | - | 0 W/m² | - |
| 1788132318 | 20.56° C | 71% | 1014.8 hPa | 0 mm | - | 0 W/m² | - |
| 1788131719 | 20° C | 76% | 1014.8 hPa | 0 mm | - | 0 W/m² | - |
| 1788131119 | 20° C | 74% | 1014.8 hPa | 0 mm | - | 0 W/m² | - |
| 1788130519 | 20° C | 75% | 1014.8 hPa | 0 mm | - | 0 W/m² | - |
| 1788129692 | 20.56° C | 74% | 1014.9 hPa | 0 mm | - | 0 W/m² | - |
| 1788129319 | 20.56° C | 74% | 1014.9 hPa | 0 mm | - | 0 W/m² | - |
| 1788128719 | 20° C | 73% | 1014.9 hPa | 0 mm | - | 0 W/m² | - |
| 1788127893 | 20° C | 77% | 1015 hPa | 0 mm | - | 0 W/m² | - |
| 1788127519 | 20° C | 75% | 1015 hPa | 0 mm | - | 0 W/m² | - |
| 1788126919 | 20° C | 76% | 1014.9 hPa | 0 mm | - | 0 W/m² | - |
| 1788126092 | 19.44° C | 81% | 1015 hPa | 0 mm | - | 0 W/m² | - |
| 1788125719 | 19.44° C | 82% | 1015 hPa | 0 mm | - | 0 W/m² | - |
| 1788125119 | 19.44° C | 80% | 1015 hPa | 0 mm | - | 0 W/m² | - |
| 1788124530 | 19.44° C | 79% | 1015 hPa | 0 mm | - | 0 W/m² | - |
| 1788123918 | 19.44° C | 81% | 1015.1 hPa | 0 mm | - | 0 W/m² | - |
| 1788123319 | 20° C | 80% | 1015 hPa | 0 mm | - | 0 W/m² | - |
| 1788122492 | 20° C | 79% | 1015.1 hPa | 0 mm | - | 0 W/m² | - |
* Rain latest hour (hover to see other rain measurements)
** Current wind speed in m/s (hover to see current wind gust speed)